Time;durP1;ratioP1;P1;durP2;ratioP2;P2;SDS_P1;SDS_P2;PMS_P1;PMS_P2;Temp;Humidity;BMP_temperature;BMP_pressure;BME280_temperature;BME280_humidity;BME280_pressure;Samples;Min_cycle;Max_cycle;Signal;HPM_P1;HPM_P2
2022/12/18 00:01:13;;;;;;;0.35;0.30;;;21.20;89.30;;;;;;5071784;28;20382;-80
2022/12/18 00:03:40;;;;;;;0.45;0.20;;;20.90;90.40;;;;;;5051403;28;20468;-78
2022/12/18 00:06:08;;;;;;;6.00;0.50;;;21.30;90.60;;;;;;5060462;28;20410;-78
2022/12/18 00:08:35;;;;;;;0.40;0.20;;;22.10;90.10;;;;;;5052762;28;20391;-77
2022/12/18 00:11:07;;;;;;;0.50;0.20;;;22.20;86.80;;;;;;5052989;28;20402;-80
2022/12/18 00:13:35;;;;;;;0.10;0.10;;;22.30;86.70;;;;;;5052305;28;20384;-81
2022/12/18 00:16:08;;;;;;;0.40;0.20;;;22.00;86.20;;;;;;5052305;28;20419;-78
2022/12/18 00:18:35;;;;;;;1.10;0.10;;;21.50;86.90;;;;;;5050814;28;20873;-77
2022/12/18 00:21:05;;;;;;;0.40;0.10;;;21.60;88.90;;;;;;5033720;28;20408;-77
2022/12/18 00:23:33;;;;;;;0.35;0.10;;;22.10;87.30;;;;;;5030821;28;20373;-79
2022/12/18 00:26:05;;;;;;;0.10;0.10;;;21.70;87.70;;;;;;5033044;28;20443;-77
2022/12/18 00:28:33;;;;;;;0.15;0.10;;;21.60;88.70;;;;;;5033399;28;20713;-82
2022/12/18 00:31:13;;;;;;;0.10;0.10;;;21.90;89.00;;;;;;5024407;28;20385;-77
2022/12/18 00:33:41;;;;;;;0.40;0.20;;;22.60;88.60;;;;;;5031383;28;20390;-78
2022/12/18 00:36:12;;;;;;;1.58;0.20;;;23.00;86.90;;;;;;5031988;28;20424;-76
2022/12/18 00:38:39;;;;;;;1.25;0.20;;;22.60;87.00;;;;;;5033721;28;20368;-77
2022/12/18 00:41:07;;;;;;;0.83;0.30;;;22.20;88.60;;;;;;5032921;28;20392;-77
2022/12/18 00:43:34;;;;;;;0.10;0.10;;;22.10;88.20;;;;;;5026511;28;20420;-76
2022/12/18 00:46:01;;;;;;;0.17;0.13;;;21.90;88.50;;;;;;5023956;28;20469;-79
2022/12/18 00:48:29;;;;;;;0.60;0.10;;;22.30;88.60;;;;;;5020367;28;20393;-77
2022/12/18 00:50:56;;;;;;;0.47;0.20;;;22.70;86.80;;;;;;5032045;28;20369;-77
2022/12/18 00:53:23;;;;;;;0.30;0.20;;;23.00;86.30;;;;;;5032034;28;20412;-78
2022/12/18 00:55:50;;;;;;;0.50;0.15;;;22.90;86.60;;;;;;5029645;28;20463;-82
2022/12/18 00:58:17;;;;;;;0.70;0.17;;;22.20;86.40;;;;;;5031798;28;20378;-76
2022/12/18 01:00:44;;;;;;;0.20;0.10;;;21.30;87.00;;;;;;5029564;28;20390;-78
2022/12/18 01:03:14;;;;;;;0.30;0.10;;;20.90;89.80;;;;;;5031911;28;20378;-77
2022/12/18 01:05:42;;;;;;;0.40;0.20;;;20.80;91.00;;;;;;5031518;28;20822;-76
2022/12/18 01:08:09;;;;;;;0.20;0.13;;;21.10;90.90;;;;;;5031702;28;20453;-79
2022/12/18 01:10:36;;;;;;;0.30;0.20;;;21.40;90.70;;;;;;5031244;28;20398;-79
2022/12/18 01:13:03;;;;;;;0.20;0.20;;;21.70;90.40;;;;;;5031917;28;20400;-78
2022/12/18 01:15:30;;;;;;;0.45;0.30;;;22.00;89.60;;;;;;5031720;28;20401;-80
2022/12/18 01:17:57;;;;;;;0.30;0.20;;;22.10;87.80;;;;;;5030348;28;20432;-77
2022/12/18 01:20:24;;;;;;;0.20;0.10;;;21.90;88.50;;;;;;5042590;28;20411;-80
2022/12/18 01:22:51;;;;;;;0.82;0.35;;;21.70;89.60;;;;;;5051917;28;20882;-81
2022/12/18 01:25:18;;;;;;;1.10;0.30;;;21.50;90.30;;;;;;5050888;28;20396;-82
2022/12/18 01:27:45;;;;;;;0.88;0.40;;;21.30;91.10;;;;;;5044022;28;20878;-82
2022/12/18 01:30:12;;;;;;;0.60;0.22;;;21.00;92.00;;;;;;5053020;28;20380;-82
2022/12/18 01:32:39;;;;;;;0.38;0.30;;;21.20;91.90;;;;;;5050806;28;20477;-81
2022/12/18 01:35:07;;;;;;;0.45;0.30;;;21.70;90.90;;;;;;5052898;28;20414;-82
2022/12/18 01:37:34;;;;;;;0.53;0.20;;;22.70;90.10;;;;;;5051243;28;20585;-81
2022/12/18 01:40:05;;;;;;;0.40;0.20;;;23.30;84.50;;;;;;5051377;28;21364;-80
2022/12/18 01:42:32;;;;;;;0.80;0.20;;;22.80;85.80;;;;;;5054587;28;20371;-79
2022/12/18 01:44:59;;;;;;;0.40;0.30;;;22.60;87.50;;;;;;5040611;28;20750;-80
2022/12/18 01:47:40;;;;;;;0.40;0.20;;;22.40;88.60;;;;;;5047504;28;20891;-82
2022/12/18 01:50:18;;;;;;;0.77;0.23;;;22.10;87.70;;;;;;5047300;28;20406;-81
2022/12/18 01:52:48;;;;;;;0.60;0.30;;;21.60;89.10;;;;;;5042872;28;20391;-79
2022/12/18 01:55:19;;;;;;;0.70;0.30;;;21.60;89.10;;;;;;5051498;28;20412;-81
2022/12/18 01:57:46;;;;;;;0.35;0.30;;;21.80;88.00;;;;;;5061918;28;20907;-79
2022/12/18 02:00:17;;;;;;;2.07;0.50;;;22.00;88.90;;;;;;5069777;28;20373;-80
2022/12/18 02:02:46;;;;;;;1.23;0.40;;;22.20;87.00;;;;;;5062112;28;20379;-79
2022/12/18 02:05:30;;;;;;;0.52;0.50;;;22.20;86.20;;;;;;5043498;28;20751;-80
2022/12/18 02:08:16;;;;;;;0.95;0.57;;;22.40;85.50;;;;;;5063849;28;20869;-83
2022/12/18 02:10:56;;;;;;;1.38;0.60;;;22.40;84.80;;;;;;5038594;28;20826;-81
2022/12/18 02:13:55;;;;;;;1.83;0.60;;;22.10;84.00;;;;;;5044699;28;21170;-80
2022/12/18 02:16:34;;;;;;;0.90;0.60;;;21.70;85.20;;;;;;4980454;28;20472;-79
2022/12/18 02:19:10;;;;;;;1.08;0.60;;;21.40;85.80;;;;;;4971700;28;20405;-84
2022/12/18 02:22:07;;;;;;;2.40;0.90;;;21.10;86.80;;;;;;4988733;28;20520;-79
2022/12/18 02:24:34;;;;;;;1.92;0.70;;;20.80;87.60;;;;;;4988611;28;20452;-81
2022/12/18 02:27:06;;;;;;;4.18;0.80;;;20.70;87.10;;;;;;4987503;28;20403;-80
2022/12/18 02:29:52;;;;;;;2.00;0.80;;;20.50;86.40;;;;;;4972085;28;20801;-84
2022/12/18 02:32:32;;;;;;;1.23;0.70;;;20.40;87.30;;;;;;4984629;28;20494;-85
2022/12/18 02:35:02;;;;;;;2.28;0.70;;;20.60;86.90;;;;;;4981642;28;20455;-81
2022/12/18 02:37:31;;;;;;;1.88;0.80;;;20.70;86.40;;;;;;4988213;28;20998;-82
2022/12/18 02:40:00;;;;;;;2.50;0.88;;;20.70;87.00;;;;;;4988035;28;21217;-81
2022/12/18 02:42:28;;;;;;;2.72;0.70;;;20.70;87.90;;;;;;4971750;28;20810;-82
2022/12/18 02:44:55;;;;;;;2.90;0.65;;;20.40;90.10;;;;;;4988266;28;20845;-89
2022/12/18 02:47:25;;;;;;;1.75;0.70;;;20.20;90.50;;;;;;4986935;28;20389;-79
2022/12/18 02:50:45;;;;;;;1.80;0.70;;;20.10;91.20;;;;;;4982804;28;20401;-81
2022/12/18 02:53:24;;;;;;;1.40;0.60;;;20.30;91.50;;;;;;4939405;29;20411;-80
2022/12/18 02:56:17;;;;;;;2.42;0.80;;;21.00;90.60;;;;;;4953378;29;20420;-82
2022/12/18 02:59:18;;;;;;;2.58;0.77;;;22.00;86.60;;;;;;4953181;29;20392;-81
2022/12/18 03:01:54;;;;;;;2.23;0.90;;;23.00;82.80;;;;;;4953003;29;20400;-83
2022/12/18 03:04:53;;;;;;;2.97;1.00;;;23.80;80.30;;;;;;4952726;29;20754;-87
2022/12/18 03:07:28;;;;;;;3.95;1.02;;;24.40;77.70;;;;;;4937264;29;20396;-88
2022/12/18 03:09:56;;;;;;;2.67;0.93;;;25.10;74.20;;;;;;4953173;29;20379;-85
2022/12/18 03:12:32;;;;;;;2.47;1.00;;;25.30;72.30;;;;;;4952222;29;20439;-83
2022/12/18 03:15:11;;;;;;;2.75;0.90;;;25.40;72.20;;;;;;4941767;29;20419;-82
2022/12/18 03:17:42;;;;;;;2.43;0.90;;;26.00;70.50;;;;;;4953945;29;20432;-79
2022/12/18 03:20:16;;;;;;;4.78;0.90;;;26.60;68.00;;;;;;4955198;29;20785;-80
2022/12/18 03:22:46;;;;;;;3.28;0.98;;;27.00;66.10;;;;;;4951744;29;20448;-83
2022/12/18 03:25:16;;;;;;;5.40;1.00;;;27.00;65.00;;;;;;4953002;29;20384;-80
2022/12/18 03:27:51;;;;;;;4.70;1.25;;;26.50;65.00;;;;;;5028055;28;20375;-78
2022/12/18 03:30:19;;;;;;;2.40;1.00;;;26.30;66.40;;;;;;5049500;28;20417;-84
2022/12/18 03:32:58;;;;;;;3.70;1.00;;;26.00;65.10;;;;;;5068700;28;20391;-84
2022/12/18 03:35:29;;;;;;;2.80;1.10;;;26.10;64.80;;;;;;5065774;28;20425;-84
2022/12/18 03:37:57;;;;;;;5.00;1.00;;;26.20;65.20;;;;;;5056382;28;20373;-86
2022/12/18 03:40:35;;;;;;;2.72;1.00;;;26.70;62.40;;;;;;5050931;28;20395;-78
2022/12/18 03:43:26;;;;;;;2.10;1.00;;;26.10;62.60;;;;;;5053185;28;20470;-86
2022/12/18 03:46:24;;;;;;;2.55;1.10;;;25.80;64.50;;;;;;5048538;28;20430;-81
2022/12/18 03:49:09;;;;;;;4.65;1.30;;;26.30;64.50;;;;;;4951996;29;20848;-78
2022/12/18 03:51:51;;;;;;;3.22;1.30;;;27.40;61.80;;;;;;4952401;28;20400;-85
2022/12/18 03:54:19;;;;;;;4.57;1.10;;;27.60;60.40;;;;;;4951928;29;20459;-84
2022/12/18 03:56:53;;;;;;;2.78;1.00;;;27.20;59.90;;;;;;4938342;29;20392;-81
2022/12/18 03:59:22;;;;;;;5.43;1.20;;;27.70;59.70;;;;;;4952228;28;20392;-79
2022/12/18 04:01:52;;;;;;;4.60;1.20;;;28.00;59.10;;;;;;4952063;28;20483;-80
2022/12/18 04:04:20;;;;;;;4.25;1.00;;;27.40;58.60;;;;;;4953127;28;20396;-80
2022/12/18 04:06:49;;;;;;;3.20;1.10;;;26.80;59.50;;;;;;4952509;29;20857;-82
2022/12/18 04:09:17;;;;;;;3.40;1.17;;;26.50;60.50;;;;;;4951271;29;20447;-77
2022/12/18 04:11:47;;;;;;;4.60;1.30;;;26.20;61.00;;;;;;4952428;29;20403;-80
2022/12/18 04:14:14;;;;;;;4.38;1.35;;;25.70;61.80;;;;;;4953586;28;20896;-80
2022/12/18 04:16:41;;;;;;;4.80;1.40;;;25.80;61.50;;;;;;4953206;28;20400;-87
2022/12/18 04:19:08;;;;;;;3.43;1.50;;;25.60;62.30;;;;;;4951058;28;20444;-86
2022/12/18 04:21:35;;;;;;;2.70;1.10;;;25.50;62.60;;;;;;4947262;29;20780;-80
2022/12/18 04:24:02;;;;;;;6.43;1.55;;;25.90;62.70;;;;;;4951113;29;20396;-84
2022/12/18 04:26:29;;;;;;;4.45;1.58;;;26.30;61.50;;;;;;5025243;28;20459;-81
2022/12/18 04:28:56;;;;;;;4.30;1.50;;;26.20;61.60;;;;;;5050652;28;20398;-86
2022/12/18 04:31:23;;;;;;;4.20;1.30;;;25.60;62.00;;;;;;5061696;28;20444;-85
2022/12/18 04:33:50;;;;;;;4.50;1.50;;;25.10;63.60;;;;;;5041497;28;20390;-77
2022/12/18 04:36:18;;;;;;;3.67;1.30;;;24.70;64.50;;;;;;5054618;28;20407;-83
2022/12/18 04:38:44;;;;;;;4.05;1.20;;;24.50;65.50;;;;;;5047946;28;20397;-77
2022/12/18 04:41:14;;;;;;;4.67;1.43;;;25.20;65.40;;;;;;5057719;28;20393;-86
2022/12/18 04:43:41;;;;;;;3.28;1.30;;;26.00;62.90;;;;;;5067802;28;20894;-81
2022/12/18 04:46:09;;;;;;;5.35;1.35;;;25.70;61.90;;;;;;5062683;28;20389;-82
2022/12/18 04:48:38;;;;;;;4.97;1.60;;;25.30;63.50;;;;;;5057352;28;20468;-83
2022/12/18 04:51:06;;;;;;;5.72;1.42;;;24.60;64.80;;;;;;5071353;28;20511;-84
2022/12/18 04:53:33;;;;;;;5.85;1.35;;;23.80;66.40;;;;;;5070136;28;20378;-82
2022/12/18 04:56:12;;;;;;;5.13;1.40;;;23.20;67.90;;;;;;5038560;28;20758;-82
2022/12/18 04:58:41;;;;;;;7.63;1.88;;;23.70;68.30;;;;;;5048987;28;20480;-82
2022/12/18 05:01:09;;;;;;;4.93;1.38;;;24.40;66.90;;;;;;5050265;28;20385;-80
2022/12/18 05:03:37;;;;;;;5.55;1.50;;;24.20;65.80;;;;;;5042350;28;20730;-77
2022/12/18 05:06:05;;;;;;;5.27;1.40;;;24.30;66.70;;;;;;5049772;28;20747;-80
2022/12/18 05:08:33;;;;;;;3.35;1.20;;;24.90;64.70;;;;;;5051062;28;20751;-79
2022/12/18 05:11:08;;;;;;;3.67;1.15;;;25.90;63.10;;;;;;5046064;28;20472;-80
2022/12/18 05:13:35;;;;;;;3.00;1.40;;;26.60;60.80;;;;;;5049002;28;20398;-80
2022/12/18 05:16:03;;;;;;;5.20;1.40;;;27.20;59.50;;;;;;5047667;28;20772;-82
2022/12/18 05:18:33;;;;;;;4.15;1.30;;;26.90;59.40;;;;;;5049674;28;20380;-83
2022/12/18 05:21:00;;;;;;;3.65;1.23;;;26.50;60.00;;;;;;5051025;28;20498;-86
2022/12/18 05:23:27;;;;;;;4.88;1.48;;;26.30;60.10;;;;;;5051284;28;20403;-86
2022/12/18 05:26:00;;;;;;;3.00;1.30;;;26.10;60.00;;;;;;5050904;28;20384;-86
2022/12/18 05:28:29;;;;;;;4.35;1.15;;;25.70;59.20;;;;;;5050865;28;20415;-82
2022/12/18 05:30:58;;;;;;;4.05;1.20;;;25.40;60.20;;;;;;5051394;28;20533;-85
2022/12/18 05:33:29;;;;;;;3.60;1.08;;;25.60;60.20;;;;;;5051296;28;20417;-85
2022/12/18 05:35:58;;;;;;;3.50;0.95;;;25.50;59.70;;;;;;5050637;28;20491;-83
2022/12/18 05:38:27;;;;;;;5.45;1.00;;;24.60;60.50;;;;;;5051235;28;20451;-87
2022/12/18 05:40:55;;;;;;;4.35;0.90;;;24.20;62.20;;;;;;5050708;28;20379;-83
2022/12/18 05:43:23;;;;;;;4.72;1.20;;;24.00;62.40;;;;;;5050507;28;20403;-83
2022/12/18 05:45:51;;;;;;;4.25;1.20;;;23.30;63.00;;;;;;5059060;28;20378;-81
2022/12/18 05:48:18;;;;;;;2.30;1.08;;;22.80;64.70;;;;;;5037178;28;20376;-82
2022/12/18 05:50:47;;;;;;;2.22;0.88;;;23.00;64.90;;;;;;5059548;28;20489;-87
2022/12/18 05:53:16;;;;;;;2.23;0.90;;;23.50;63.80;;;;;;5069700;28;20378;-78
2022/12/18 05:55:43;;;;;;;3.58;0.93;;;24.50;61.00;;;;;;5070286;28;20831;-84
2022/12/18 05:58:12;;;;;;;3.67;1.00;;;25.10;59.60;;;;;;5069793;28;20892;-83
2022/12/18 06:00:41;;;;;;;1.95;0.90;;;25.10;58.70;;;;;;5069658;28;20424;-82
2022/12/18 06:03:09;;;;;;;2.97;0.90;;;25.50;57.70;;;;;;5069559;28;20367;-81
2022/12/18 06:05:38;;;;;;;2.28;0.90;;;26.10;56.80;;;;;;5070094;28;20417;-82
2022/12/18 06:08:06;;;;;;;2.93;1.00;;;26.30;56.20;;;;;;5069315;28;20370;-83
2022/12/18 06:10:33;;;;;;;2.08;0.90;;;26.30;56.00;;;;;;5070200;28;20469;-80
2022/12/18 06:13:01;;;;;;;6.10;1.23;;;25.70;56.50;;;;;;5070083;28;20381;-81
2022/12/18 06:15:28;;;;;;;3.27;1.00;;;25.00;58.40;;;;;;5063930;28;20956;-88
2022/12/18 06:17:55;;;;;;;5.28;0.98;;;25.10;58.70;;;;;;5046212;28;20374;-83
2022/12/18 06:20:22;;;;;;;3.20;0.90;;;25.00;58.60;;;;;;5037738;28;20405;-87
2022/12/18 06:22:49;;;;;;;4.10;1.17;;;24.80;59.60;;;;;;5061296;28;20398;-84
2022/12/18 06:25:16;;;;;;;5.20;1.13;;;24.70;58.90;;;;;;5025817;28;20856;-85
2022/12/18 06:27:43;;;;;;;5.15;1.00;;;24.80;59.50;;;;;;5049970;28;20454;-85
2022/12/18 06:30:12;;;;;;;3.03;1.00;;;25.10;58.50;;;;;;5050337;28;20936;-84
2022/12/18 06:32:39;;;;;;;3.33;1.10;;;25.50;58.60;;;;;;5051102;28;20416;-84
2022/12/18 06:35:06;;;;;;;4.75;1.17;;;25.30;58.70;;;;;;5067808;28;20404;-85
2022/12/18 06:37:33;;;;;;;3.60;1.08;;;24.70;60.10;;;;;;5069816;28;20964;-84
2022/12/18 06:40:00;;;;;;;3.13;1.17;;;23.90;62.00;;;;;;5055666;28;20461;-85
2022/12/18 06:42:28;;;;;;;5.22;1.27;;;23.40;64.10;;;;;;5040699;28;20755;-84
2022/12/18 06:44:55;;;;;;;4.35;1.30;;;23.90;62.70;;;;;;5058423;28;20464;-83
2022/12/18 06:47:22;;;;;;;2.90;1.13;;;24.20;62.60;;;;;;5069651;28;20390;-81
2022/12/18 06:49:49;;;;;;;4.60;1.30;;;24.70;62.00;;;;;;5054353;28;20382;-84
2022/12/18 06:52:18;;;;;;;4.30;1.23;;;25.20;61.00;;;;;;5046761;28;20887;-86
2022/12/18 06:54:45;;;;;;;6.28;1.40;;;25.60;59.40;;;;;;5049626;28;20419;-84
2022/12/18 06:57:12;;;;;;;4.05;1.30;;;25.30;59.70;;;;;;5042639;28;20454;-88
2022/12/18 06:59:39;;;;;;;4.57;1.48;;;24.80;60.60;;;;;;5054664;28;20402;-87
2022/12/18 07:02:06;;;;;;;3.47;1.25;;;24.70;61.00;;;;;;5037080;28;20458;-87
2022/12/18 07:04:33;;;;;;;4.13;1.40;;;24.20;62.90;;;;;;5047191;28;20390;-83
2022/12/18 07:07:00;;;;;;;4.43;1.40;;;24.60;62.20;;;;;;5054921;28;20822;-84
2022/12/18 07:09:27;;;;;;;7.03;1.48;;;25.00;61.50;;;;;;5061708;28;20418;-84
2022/12/18 07:11:54;;;;;;;4.63;1.43;;;25.20;61.90;;;;;;5046855;28;20428;-84
2022/12/18 07:14:21;;;;;;;4.97;1.60;;;24.80;62.40;;;;;;5040059;28;20390;-86
2022/12/18 07:16:48;;;;;;;4.93;1.50;;;24.80;62.80;;;;;;5045672;28;20391;-87
2022/12/18 07:19:15;;;;;;;6.85;1.60;;;25.00;62.80;;;;;;5031670;28;20390;-84
2022/12/18 07:21:42;;;;;;;5.38;1.45;;;25.00;62.80;;;;;;5060579;28;20390;-85
2022/12/18 07:24:09;;;;;;;3.35;1.33;;;24.80;61.40;;;;;;5052552;28;20375;-87
2022/12/18 07:26:36;;;;;;;3.70;1.20;;;24.30;61.30;;;;;;5044941;28;20442;-84
2022/12/18 07:29:03;;;;;;;3.83;1.30;;;24.10;62.60;;;;;;5049741;28;20454;-86
2022/12/18 07:31:30;;;;;;;4.05;1.00;;;24.30;61.90;;;;;;5060742;28;20375;-82
2022/12/18 07:33:57;;;;;;;3.63;1.25;;;24.40;61.40;;;;;;5040016;28;20419;-82
2022/12/18 07:36:24;;;;;;;2.63;0.90;;;24.30;62.00;;;;;;5056536;28;20451;-84
2022/12/18 07:38:52;;;;;;;3.33;0.90;;;24.30;60.80;;;;;;5062674;28;20747;-84
2022/12/18 07:41:20;;;;;;;4.13;1.10;;;24.20;60.70;;;;;;5045891;28;20390;-83
2022/12/18 07:43:47;;;;;;;2.65;0.90;;;23.80;61.90;;;;;;5041037;28;20380;-84
2022/12/18 07:46:16;;;;;;;3.20;0.90;;;23.30;62.50;;;;;;5053228;28;20429;-76
2022/12/18 07:48:44;;;;;;;3.60;0.90;;;23.30;62.80;;;;;;5048635;28;20393;-86
2022/12/18 07:51:12;;;;;;;3.17;0.85;;;23.20;62.50;;;;;;5057086;28;20389;-82
2022/12/18 07:53:40;;;;;;;3.08;0.90;;;23.10;63.10;;;;;;5067763;28;20384;-88
2022/12/18 07:56:09;;;;;;;2.20;0.80;;;23.00;63.30;;;;;;5053070;28;20900;-87
2022/12/18 07:58:37;;;;;;;3.95;0.90;;;22.80;63.40;;;;;;5072161;28;20436;-86
2022/12/18 08:01:11;;;;;;;2.95;0.80;;;22.60;64.00;;;;;;5072007;28;20461;-84
2022/12/18 08:03:40;;;;;;;4.15;0.90;;;22.30;64.70;;;;;;5046981;28;20427;-83
2022/12/18 08:06:09;;;;;;;3.45;1.02;;;22.00;66.20;;;;;;5058267;28;20402;-83
2022/12/18 08:08:37;;;;;;;2.60;1.00;;;22.00;66.30;;;;;;5072149;28;20418;-85
2022/12/18 08:11:04;;;;;;;4.75;1.10;;;21.80;67.30;;;;;;5049593;28;20388;-84
2022/12/18 08:13:31;;;;;;;4.10;1.30;;;21.90;68.40;;;;;;5054804;28;20387;-86
2022/12/18 08:15:59;;;;;;;6.95;1.40;;;21.90;69.30;;;;;;5061486;28;20803;-83
2022/12/18 08:18:26;;;;;;;5.47;1.40;;;21.90;69.70;;;;;;5061593;28;20457;-86
2022/12/18 08:20:53;;;;;;;6.75;1.50;;;21.70;70.40;;;;;;5069836;28;20432;-85
2022/12/18 08:23:20;;;;;;;6.18;1.50;;;21.50;71.20;;;;;;5062233;28;20421;-84
2022/12/18 08:25:47;;;;;;;5.40;1.50;;;21.30;72.00;;;;;;5070756;28;20383;-84
2022/12/18 08:28:14;;;;;;;5.93;1.50;;;21.20;72.50;;;;;;5072706;28;20378;-84
2022/12/18 08:30:42;;;;;;;5.43;1.50;;;21.10;73.00;;;;;;5062142;28;20386;-84
2022/12/18 08:33:09;;;;;;;7.40;1.58;;;21.00;73.50;;;;;;5066796;28;20400;-84
2022/12/18 08:35:36;;;;;;;4.20;1.40;;;20.80;74.10;;;;;;5070384;28;20414;-86
2022/12/18 08:38:04;;;;;;;5.70;1.65;;;20.60;74.70;;;;;;5063440;28;20879;-85
2022/12/18 08:40:31;;;;;;;4.82;1.30;;;20.20;75.30;;;;;;5044456;28;20792;-85
2022/12/18 08:45:43;;;;;;;5.80;1.50;;;19.40;77.60;;;;;;5046877;28;20385;-85
2022/12/18 08:48:10;;;;;;;3.97;1.27;;;19.10;77.90;;;;;;5053392;28;20749;-85
2022/12/18 08:50:37;;;;;;;2.47;0.90;;;19.00;76.60;;;;;;5064098;28;20401;-86
2022/12/18 08:53:04;;;;;;;4.13;1.00;;;18.90;76.10;;;;;;5069321;28;20370;-85
2022/12/18 08:55:31;;;;;;;4.00;1.10;;;18.70;76.50;;;;;;5049559;28;20415;-85
2022/12/18 08:57:58;;;;;;;4.60;1.00;;;18.60;77.30;;;;;;5061949;28;20919;-85
2022/12/18 09:00:25;;;;;;;4.15;1.17;;;18.50;78.30;;;;;;5066014;28;20385;-84
2022/12/18 09:02:52;;;;;;;4.00;0.90;;;18.30;78.90;;;;;;5053746;28;20420;-83
2022/12/18 09:05:19;;;;;;;3.72;1.05;;;18.30;79.40;;;;;;5060088;28;20380;-84
2022/12/18 09:07:46;;;;;;;2.13;0.75;;;18.10;79.80;;;;;;5042806;28;20393;-84
2022/12/18 09:10:13;;;;;;;4.57;0.90;;;18.00;79.90;;;;;;5041098;28;20461;-84
2022/12/18 09:12:40;;;;;;;3.10;0.88;;;17.90;80.80;;;;;;5053969;28;20388;-83
2022/12/18 09:15:07;;;;;;;6.15;0.95;;;17.80;81.20;;;;;;5052106;28;20417;-85
2022/12/18 09:17:34;;;;;;;2.53;0.80;;;17.80;81.50;;;;;;5047042;28;20408;-84
2022/12/18 09:20:01;;;;;;;4.25;1.00;;;17.70;82.00;;;;;;5047227;28;20413;-83
2022/12/18 09:22:28;;;;;;;3.65;1.00;;;17.70;82.60;;;;;;5044893;28;20855;-83
2022/12/18 09:24:55;;;;;;;3.85;1.10;;;17.70;82.80;;;;;;5050855;28;20382;-83
2022/12/18 09:27:22;;;;;;;3.30;0.90;;;17.70;83.10;;;;;;5059527;28;20383;-84
2022/12/18 09:29:49;;;;;;;5.82;1.10;;;17.70;83.40;;;;;;5057871;28;20371;-84
2022/12/18 09:32:17;;;;;;;4.50;1.02;;;17.70;83.50;;;;;;5050104;28;20391;-84
2022/12/18 09:34:43;;;;;;;3.30;0.90;;;17.70;83.80;;;;;;5057410;28;20399;-84
2022/12/18 09:37:11;;;;;;;4.35;1.20;;;17.70;84.20;;;;;;5053781;28;20933;-84
2022/12/18 09:39:38;;;;;;;4.10;1.00;;;17.60;84.40;;;;;;5054415;28;20898;-84
2022/12/18 09:42:06;;;;;;;5.13;1.08;;;17.50;85.30;;;;;;5050187;28;20380;-85
2022/12/18 09:44:41;;;;;;;4.47;1.10;;;17.40;86.00;;;;;;5046619;28;20384;-84
2022/12/18 09:47:28;;;;;;;4.47;1.00;;;17.30;86.40;;;;;;5036773;28;20386;-84
2022/12/18 09:50:21;;;;;;;3.90;1.10;;;17.30;87.20;;;;;;5042849;28;20501;-84
2022/12/18 09:52:53;;;;;;;4.70;0.98;;;17.20;87.80;;;;;;5049003;28;21265;-84
2022/12/18 09:55:47;;;;;;;4.80;1.17;;;17.20;88.30;;;;;;5037219;28;20889;-83
2022/12/18 09:58:44;;;;;;;4.78;1.20;;;17.20;89.00;;;;;;5038007;28;20860;-84
2022/12/18 10:01:22;;;;;;;3.75;1.30;;;17.20;89.10;;;;;;5049371;28;20392;-83
2022/12/18 10:03:51;;;;;;;4.65;1.10;;;17.20;89.30;;;;;;5048186;28;20445;-84
2022/12/18 10:06:50;;;;;;;3.97;1.00;;;17.10;90.00;;;;;;5049995;28;20379;-84
2022/12/18 10:09:23;;;;;;;3.83;0.93;;;17.10;90.10;;;;;;4978466;28;20383;-83
2022/12/18 10:12:03;;;;;;;4.80;1.30;;;17.10;90.40;;;;;;5007826;28;20458;-83
2022/12/18 10:14:39;;;;;;;3.67;1.15;;;17.00;90.60;;;;;;4995045;28;20432;-84
2022/12/18 10:17:15;;;;;;;5.30;1.20;;;16.90;90.90;;;;;;4993650;28;20400;-83
2022/12/18 10:19:58;;;;;;;4.15;1.10;;;16.80;91.30;;;;;;4989467;28;20772;-84
2022/12/18 10:22:37;;;;;;;5.20;1.10;;;16.60;91.80;;;;;;5004228;28;20399;-84
2022/12/18 10:25:20;;;;;;;3.83;0.95;;;15.80;91.90;;;;;;4994835;28;20399;-84
2022/12/18 10:27:48;;;;;;;5.72;1.30;;;16.40;92.50;;;;;;4990898;28;20776;-83
2022/12/18 10:30:18;;;;;;;4.50;1.15;;;16.30;93.00;;;;;;5000854;28;20426;-84
2022/12/18 10:32:45;;;;;;;4.70;1.13;;;16.20;93.60;;;;;;4999056;28;20906;-83
2022/12/18 10:35:26;;;;;;;3.77;1.20;;;16.20;93.90;;;;;;4990260;28;21208;-84
2022/12/18 10:38:16;;;;;;;5.60;1.20;;;16.10;94.30;;;;;;5006624;28;20456;-84
2022/12/18 10:40:59;;;;;;;4.95;1.30;;;16.10;94.90;;;;;;4990662;28;20403;-84
2022/12/18 10:43:28;;;;;;;6.18;1.50;;;16.20;95.20;;;;;;5004579;28;20391;-84
2022/12/18 10:46:17;;;;;;;4.15;1.15;;;16.10;95.50;;;;;;5001219;28;20394;-84
2022/12/18 10:48:58;;;;;;;4.13;1.10;;;16.30;95.70;;;;;;5029704;28;20365;-84
2022/12/18 10:51:37;;;;;;;5.03;1.20;;;16.40;95.60;;;;;;5028271;28;20731;-84
2022/12/18 10:54:22;;;;;;;4.05;1.10;;;16.40;95.70;;;;;;5029763;28;20424;-84
2022/12/18 10:56:50;;;;;;;4.45;1.10;;;16.50;95.30;;;;;;5021151;28;20417;-85
2022/12/18 10:59:18;;;;;;;4.97;0.95;;;16.60;95.40;;;;;;5019605;28;20424;-85
2022/12/18 11:01:49;;;;;;;3.97;1.10;;;16.60;95.20;;;;;;5027411;28;20387;-85
2022/12/18 11:04:24;;;;;;;4.45;1.10;;;16.50;95.40;;;;;;5011224;28;20929;-83
2022/12/18 11:06:57;;;;;;;2.53;0.90;;;16.50;95.40;;;;;;5028506;28;20738;-84
2022/12/18 11:09:26;;;;;;;3.38;1.08;;;16.40;95.50;;;;;;5016837;28;20379;-83
2022/12/18 11:11:59;;;;;;;3.83;1.10;;;16.40;95.60;;;;;;5022945;28;20996;-84
2022/12/18 11:14:42;;;;;;;3.63;1.00;;;16.40;95.70;;;;;;5029592;28;20385;-83
2022/12/18 11:17:30;;;;;;;4.20;0.90;;;16.40;95.70;;;;;;5018969;28;20407;-84
2022/12/18 11:20:21;;;;;;;4.40;0.90;;;16.30;95.80;;;;;;5039606;28;20411;-81
2022/12/18 11:23:13;;;;;;;4.45;0.80;;;16.30;95.90;;;;;;5036924;28;20396;-85
2022/12/18 11:25:50;;;;;;;4.60;1.00;;;16.40;96.00;;;;;;5040490;28;20734;-86
2022/12/18 11:28:35;;;;;;;3.78;0.90;;;16.40;95.90;;;;;;5061512;28;20488;-84
2022/12/18 11:31:17;;;;;;;4.07;0.98;;;16.30;96.30;;;;;;5042502;28;20389;-84
2022/12/18 11:33:57;;;;;;;3.40;0.93;;;16.20;96.50;;;;;;5066260;28;20389;-83
2022/12/18 11:36:26;;;;;;;2.92;0.82;;;16.10;97.30;;;;;;5058280;28;20509;-83
2022/12/18 11:38:56;;;;;;;4.05;0.90;;;16.00;97.70;;;;;;5067537;28;20384;-83
2022/12/18 11:42:09;;;;;;;3.75;1.08;;;15.90;98.10;;;;;;5044549;28;20447;-84
2022/12/18 11:44:54;;;;;;;5.00;1.20;;;15.80;98.70;;;;;;5037152;28;20800;-83
2022/12/18 11:47:27;;;;;;;5.07;1.00;;;16.00;99.20;;;;;;5047934;28;20378;-83
2022/12/18 11:49:59;;;;;;;4.05;1.10;;;16.00;99.20;;;;;;5063048;28;20463;-83
2022/12/18 11:52:39;;;;;;;3.05;0.93;;;16.10;99.20;;;;;;5057754;28;20374;-85
2022/12/18 11:55:35;;;;;;;2.83;0.90;;;16.10;99.10;;;;;;5070637;28;20559;-83
2022/12/18 11:58:20;;;;;;;3.13;1.10;;;16.20;99.30;;;;;;5048056;28;20392;-83
2022/12/18 12:01:03;;;;;;;5.15;1.20;;;16.20;99.50;;;;;;5055401;28;20406;-84
2022/12/18 12:03:51;;;;;;;5.07;1.10;;;16.10;99.60;;;;;;5065454;28;20945;-84
2022/12/18 12:06:34;;;;;;;4.32;1.10;;;16.10;99.80;;;;;;5071089;28;20403;-85
2022/12/18 12:09:16;;;;;;;4.55;1.10;;;16.00;99.90;;;;;;5068082;28;20374;-84
2022/12/18 12:12:45;;;;;;;4.68;1.20;;;16.00;99.90;;;;;;5050344;28;20386;-84
2022/12/18 12:15:14;;;;;;;5.28;1.35;;;15.80;99.90;;;;;;4970919;28;20862;-84
2022/12/18 12:18:04;;;;;;;5.38;1.50;;;15.70;99.90;;;;;;4968257;28;20404;-84
2022/12/18 12:21:03;;;;;;;4.35;1.10;;;15.60;99.90;;;;;;4956316;28;20470;-85
2022/12/18 12:23:54;;;;;;;7.03;1.30;;;15.60;99.90;;;;;;4948407;28;20394;-84
2022/12/18 12:26:25;;;;;;;4.70;1.13;;;15.50;99.90;;;;;;4950909;28;20816;-84
2022/12/18 12:29:03;;;;;;;5.85;1.23;;;15.50;99.90;;;;;;4965873;28;20469;-84
2022/12/18 12:31:56;;;;;;;5.20;1.10;;;15.50;99.90;;;;;;4959311;28;20471;-83
2022/12/18 12:34:35;;;;;;;5.03;1.25;;;15.50;99.90;;;;;;4955775;28;20486;-84
2022/12/18 12:37:22;;;;;;;6.07;1.10;;;15.60;99.90;;;;;;4964954;28;20412;-86
2022/12/18 12:39:51;;;;;;;3.80;1.00;;;15.70;99.90;;;;;;4953206;28;20412;-84
2022/12/18 12:45:41;;;;;;;5.53;1.30;;;15.80;99.90;;;;;;4951790;28;20884;-85
2022/12/18 12:48:32;;;;;;;5.20;1.30;;;15.90;99.90;;;;;;4952860;28;20848;-84
2022/12/18 12:51:04;;;;;;;4.15;1.20;;;15.90;99.90;;;;;;4982133;28;20384;-84
2022/12/18 12:53:36;;;;;;;6.35;1.50;;;15.90;99.90;;;;;;5049279;28;20754;-84
2022/12/18 12:56:05;;;;;;;6.70;1.30;;;15.90;99.90;;;;;;5054894;28;20431;-82
2022/12/18 12:59:06;;;;;;;5.77;1.40;;;15.90;99.90;;;;;;5056298;28;20427;-84
2022/12/18 13:01:53;;;;;;;5.93;1.42;;;15.90;99.90;;;;;;5058810;28;20436;-84
2022/12/18 13:04:43;;;;;;;5.65;1.25;;;15.80;99.90;;;;;;5034204;28;20374;-84
2022/12/18 13:07:39;;;;;;;6.13;1.23;;;15.80;99.90;;;;;;5055188;28;20881;-83
2022/12/18 13:10:25;;;;;;;4.95;1.20;;;15.50;99.90;;;;;;5052794;28;20664;-82
2022/12/18 13:12:56;;;;;;;4.95;1.30;;;15.50;99.90;;;;;;5032974;28;20398;-83
2022/12/18 13:15:39;;;;;;;5.55;1.38;;;15.50;99.90;;;;;;5056291;28;20406;-83
2022/12/18 13:18:20;;;;;;;5.78;1.20;;;15.40;99.90;;;;;;5065040;28;20382;-83
2022/12/18 13:21:21;;;;;;;6.57;1.27;;;15.40;99.90;;;;;;5055648;28;20410;-83
2022/12/18 13:23:48;;;;;;;4.60;1.38;;;15.30;99.90;;;;;;5055190;28;20823;-84